Time;durP1;ratioP1;P1;durP2;ratioP2;P2;SDS_P1;SDS_P2;PMS_P1;PMS_P2;Temp;Humidity;BMP_temperature;BMP_pressure;BME280_temperature;BME280_humidity;BME280_pressure;Samples;Min_cycle;Max_cycle;Signal;HPM_P1;HPM_P2
2023/12/08 00:03:03;;;;;;;32.00;17.30;;;1.60;99.90;;;;;;5099460;27;20425;-79
2023/12/08 00:05:30;;;;;;;30.50;16.55;;;1.10;99.90;;;;;;5105866;28;20093;-79
2023/12/08 00:07:56;;;;;;;33.83;17.50;;;0.90;99.90;;;;;;5105527;28;20135;-78
2023/12/08 00:10:23;;;;;;;31.95;16.92;;;1.00;99.90;;;;;;5101827;28;20048;-79
2023/12/08 00:12:48;;;;;;;32.33;17.48;;;1.00;99.90;;;;;;5117527;28;20485;-78
2023/12/08 00:15:16;;;;;;;30.88;17.52;;;1.00;99.90;;;;;;5100408;28;20040;-79
2023/12/08 00:17:43;;;;;;;31.17;18.65;;;1.00;99.90;;;;;;5110355;28;20044;-78
2023/12/08 00:20:09;;;;;;;28.90;17.00;;;1.00;99.90;;;;;;5107259;28;20047;-80
2023/12/08 00:22:35;;;;;;;32.13;17.58;;;1.00;99.90;;;;;;5112238;28;20093;-78
2023/12/08 00:25:01;;;;;;;31.55;17.10;;;1.00;99.90;;;;;;5117353;28;20036;-79
2023/12/08 00:27:26;;;;;;;32.20;17.80;;;2.20;99.90;;;;;;5113825;28;20040;-78
2023/12/08 00:29:52;;;;;;;31.92;17.27;;;1.00;99.90;;;;;;5093752;28;20036;-80
2023/12/08 00:32:19;;;;;;;32.30;16.70;;;2.40;99.90;;;;;;5113256;28;20036;-78
2023/12/08 00:34:46;;;;;;;31.33;17.55;;;1.00;99.90;;;;;;5117682;27;20043;-79
2023/12/08 00:37:18;;;;;;;29.10;17.70;;;1.00;99.90;;;;;;5097547;28;20059;-79
2023/12/08 00:39:44;;;;;;;30.58;17.67;;;1.00;99.90;;;;;;5103002;28;20052;-78
2023/12/08 00:42:12;;;;;;;28.52;16.88;;;1.10;99.90;;;;;;5109888;28;20058;-79
2023/12/08 00:44:38;;;;;;;31.52;17.33;;;1.00;99.90;;;;;;5109272;28;20043;-79
2023/12/08 00:47:04;;;;;;;30.55;17.90;;;1.20;99.90;;;;;;5111963;28;20116;-78
2023/12/08 00:49:30;;;;;;;31.30;17.55;;;1.00;99.90;;;;;;5097437;28;20044;-79
2023/12/08 00:51:56;;;;;;;34.95;18.60;;;1.00;99.90;;;;;;5113111;28;20044;-79
2023/12/08 00:54:22;;;;;;;27.98;16.20;;;1.00;99.90;;;;;;5100855;28;20067;-78
2023/12/08 00:56:48;;;;;;;27.70;17.15;;;1.00;99.90;;;;;;5103526;28;20036;-79
2023/12/08 00:59:14;;;;;;;36.10;17.63;;;1.00;99.90;;;;;;5111513;28;20077;-77
2023/12/08 01:01:39;;;;;;;26.65;15.88;;;1.90;99.90;;;;;;5109834;28;20107;-79
2023/12/08 01:04:05;;;;;;;29.48;16.83;;;1.00;99.90;;;;;;5100037;28;20036;-78
2023/12/08 01:06:31;;;;;;;26.98;15.90;;;1.00;99.90;;;;;;5111941;28;20038;-78
2023/12/08 01:09:00;;;;;;;28.58;16.50;;;1.00;99.90;;;;;;5111560;28;20103;-77
2023/12/08 01:11:26;;;;;;;29.05;18.17;;;1.00;99.90;;;;;;5114249;28;20052;-79
2023/12/08 01:13:53;;;;;;;32.97;18.02;;;1.00;99.90;;;;;;5107961;28;20070;-79
2023/12/08 01:16:19;;;;;;;27.25;16.27;;;1.00;99.90;;;;;;5101090;28;20036;-79
2023/12/08 01:18:45;;;;;;;31.15;16.60;;;0.90;99.90;;;;;;5102122;28;20051;-79
2023/12/08 01:21:10;;;;;;;27.08;15.63;;;1.00;99.90;;;;;;5074112;28;20039;-78
2023/12/08 01:23:36;;;;;;;33.20;17.15;;;1.00;99.90;;;;;;5093740;28;20055;-79
2023/12/08 01:26:06;;;;;;;33.67;17.95;;;1.00;99.90;;;;;;5086873;28;20083;-78
2023/12/08 01:28:35;;;;;;;31.33;17.08;;;1.00;99.90;;;;;;5082518;28;20040;-78
2023/12/08 01:31:01;;;;;;;31.33;17.15;;;1.00;99.90;;;;;;5102995;28;20052;-77
2023/12/08 01:33:26;;;;;;;32.47;17.77;;;1.00;99.90;;;;;;5104709;28;20040;-79
2023/12/08 01:35:52;;;;;;;33.67;18.27;;;1.00;99.90;;;;;;5098074;28;20101;-77
2023/12/08 01:38:18;;;;;;;32.53;17.40;;;1.00;99.90;;;;;;5112814;28;20061;-78
2023/12/08 01:40:44;;;;;;;30.60;16.10;;;1.00;99.90;;;;;;5105455;28;20477;-78
2023/12/08 01:43:11;;;;;;;33.03;18.40;;;1.00;99.90;;;;;;5100599;28;20044;-78
2023/12/08 01:45:38;;;;;;;40.37;17.77;;;1.00;99.90;;;;;;5103206;28;20094;-78
2023/12/08 01:48:07;;;;;;;33.95;19.00;;;1.00;99.90;;;;;;5090668;28;20317;-79
2023/12/08 01:50:34;;;;;;;29.70;16.52;;;1.00;99.90;;;;;;5085375;28;20032;-78
2023/12/08 01:53:00;;;;;;;32.17;18.17;;;1.00;99.90;;;;;;5095791;28;20104;-78
2023/12/08 01:55:27;;;;;;;34.80;19.42;;;1.50;99.90;;;;;;5101198;28;20123;-77
2023/12/08 01:57:53;;;;;;;30.20;17.92;;;2.10;99.90;;;;;;5095467;28;20044;-78
2023/12/08 02:00:19;;;;;;;32.60;17.17;;;2.20;99.90;;;;;;5091348;28;20067;-79
2023/12/08 02:02:45;;;;;;;30.05;18.25;;;1.00;99.90;;;;;;5084994;28;20536;-78
2023/12/08 02:05:13;;;;;;;34.15;16.15;;;1.00;99.90;;;;;;5099407;28;20041;-79
2023/12/08 02:07:39;;;;;;;30.30;18.20;;;1.00;99.90;;;;;;5098390;28;20486;-79
2023/12/08 02:10:05;;;;;;;30.40;19.23;;;1.00;99.90;;;;;;5101617;28;20040;-78
2023/12/08 02:12:31;;;;;;;29.60;18.25;;;1.00;99.90;;;;;;5100666;28;20032;-79
2023/12/08 02:14:57;;;;;;;33.70;18.48;;;1.00;99.90;;;;;;5087411;28;20543;-77
2023/12/08 02:17:38;;;;;;;31.10;19.48;;;1.00;99.90;;;;;;5096253;28;20044;-79
2023/12/08 02:20:10;;;;;;;33.55;18.88;;;1.00;99.90;;;;;;5089993;28;20048;-80
2023/12/08 02:22:39;;;;;;;37.03;18.30;;;1.00;99.90;;;;;;5091351;28;20067;-78
2023/12/08 02:25:05;;;;;;;29.38;16.23;;;1.00;99.90;;;;;;5092529;28;20102;-81
2023/12/08 02:27:31;;;;;;;32.50;19.05;;;1.00;99.90;;;;;;5090098;28;20478;-79
2023/12/08 02:29:57;;;;;;;32.75;19.08;;;1.30;99.90;;;;;;5087890;28;20048;-78
2023/12/08 02:32:27;;;;;;;31.55;16.90;;;1.00;99.90;;;;;;5096145;28;20044;-79
2023/12/08 02:35:01;;;;;;;38.30;17.73;;;1.00;99.90;;;;;;5096549;28;20470;-79
2023/12/08 02:37:30;;;;;;;29.45;16.95;;;1.00;99.90;;;;;;5083674;28;20048;-79
2023/12/08 02:40:01;;;;;;;32.53;18.65;;;1.00;99.90;;;;;;5085454;28;20047;-79
2023/12/08 02:42:29;;;;;;;33.05;19.25;;;1.00;99.90;;;;;;5093050;28;20040;-80
2023/12/08 02:44:55;;;;;;;35.00;18.25;;;1.00;99.90;;;;;;5072010;28;20049;-81
2023/12/08 02:47:21;;;;;;;40.05;17.35;;;1.00;99.90;;;;;;5093396;28;20494;-81
2023/12/08 02:49:47;;;;;;;29.67;16.48;;;1.00;99.90;;;;;;5071601;28;20043;-79
2023/12/08 02:52:12;;;;;;;34.13;18.05;;;1.00;99.90;;;;;;5087661;28;20056;-79
2023/12/08 02:54:42;;;;;;;31.98;18.55;;;2.80;99.90;;;;;;5083246;28;20028;-81
2023/12/08 02:57:08;;;;;;;32.33;18.30;;;1.00;99.90;;;;;;5110144;28;20043;-80
2023/12/08 02:59:33;;;;;;;31.55;18.48;;;1.00;99.90;;;;;;5092242;28;20036;-80
2023/12/08 03:01:59;;;;;;;30.85;17.08;;;1.00;99.90;;;;;;5067904;28;20049;-80
2023/12/08 03:04:26;;;;;;;29.40;17.35;;;1.00;99.90;;;;;;5097410;28;20052;-79
2023/12/08 03:06:52;;;;;;;27.30;17.15;;;1.00;99.90;;;;;;5094108;28;20063;-80
2023/12/08 03:09:18;;;;;;;32.78;17.73;;;1.00;99.90;;;;;;5090686;28;20037;-80
2023/12/08 03:11:44;;;;;;;28.55;16.90;;;1.00;99.90;;;;;;5081281;28;20132;-79
2023/12/08 03:14:09;;;;;;;29.10;17.63;;;1.00;99.90;;;;;;5089653;28;20036;-80
2023/12/08 03:16:36;;;;;;;31.13;17.63;;;1.00;99.90;;;;;;5100157;28;20103;-79
2023/12/08 03:19:02;;;;;;;28.00;16.58;;;1.00;99.90;;;;;;5089816;28;20052;-80
2023/12/08 03:21:28;;;;;;;31.73;17.92;;;1.00;99.90;;;;;;5087436;28;20038;-79
2023/12/08 03:23:53;;;;;;;29.48;17.50;;;1.00;99.90;;;;;;5093950;28;20040;-79
2023/12/08 03:26:20;;;;;;;29.00;16.55;;;1.00;99.90;;;;;;5093275;28;20032;-78
2023/12/08 03:28:45;;;;;;;27.10;17.35;;;1.00;99.90;;;;;;5086132;28;20096;-80
2023/12/08 03:31:29;;;;;;;28.70;17.75;;;1.00;99.90;;;;;;5092343;28;20126;-79
2023/12/08 03:33:54;;;;;;;28.35;16.65;;;1.00;99.90;;;;;;5096993;28;20043;-79
2023/12/08 03:36:20;;;;;;;28.05;16.05;;;1.00;99.90;;;;;;5092556;28;20171;-79
2023/12/08 03:38:46;;;;;;;23.27;15.98;;;1.40;99.90;;;;;;5074657;28;20047;-78
2023/12/08 03:41:12;;;;;;;27.13;15.75;;;1.00;99.90;;;;;;5070391;28;20058;-80
2023/12/08 03:43:41;;;;;;;27.90;15.98;;;1.00;99.90;;;;;;5092875;28;20044;-79
2023/12/08 03:46:07;;;;;;;31.02;16.13;;;2.10;99.90;;;;;;5068971;28;20036;-80
2023/12/08 03:48:36;;;;;;;30.33;16.33;;;1.00;99.90;;;;;;5073974;28;20047;-79
2023/12/08 03:51:02;;;;;;;;;;;2.00;99.90;;;;;;5065920;28;20083;-79
2023/12/08 03:53:28;;;;;;;31.67;15.82;;;1.00;99.90;;;;;;5088051;28;19988;-79
2023/12/08 03:55:57;;;;;;;25.63;15.52;;;1.10;99.90;;;;;;5095567;28;20122;-79
2023/12/08 03:58:23;;;;;;;26.50;15.63;;;0.80;99.90;;;;;;5087863;28;20048;-79
2023/12/08 04:00:48;;;;;;;26.98;16.13;;;1.80;99.90;;;;;;5098211;28;20047;-80
2023/12/08 04:03:14;;;;;;;27.88;15.65;;;1.00;99.90;;;;;;5103600;28;20040;-79
2023/12/08 04:05:42;;;;;;;27.65;16.35;;;1.00;99.90;;;;;;5068497;28;20041;-78
2023/12/08 04:08:08;;;;;;;24.20;15.23;;;1.00;99.90;;;;;;5070053;28;20048;-79
2023/12/08 04:10:34;;;;;;;26.75;14.90;;;1.10;99.90;;;;;;5083340;28;20052;-79
2023/12/08 04:13:02;;;;;;;30.08;16.25;;;0.80;99.90;;;;;;5092752;28;20040;-79
2023/12/08 04:15:31;;;;;;;27.52;16.55;;;1.00;99.90;;;;;;5107905;28;20097;-80
2023/12/08 04:17:57;;;;;;;25.83;16.02;;;0.80;99.90;;;;;;5067320;28;20045;-79
2023/12/08 04:20:24;;;;;;;24.35;14.55;;;1.00;99.90;;;;;;5095098;28;20051;-79
2023/12/08 04:22:49;;;;;;;29.63;15.88;;;1.00;99.90;;;;;;5093534;28;20040;-78
2023/12/08 04:25:15;;;;;;;27.13;14.98;;;1.00;99.90;;;;;;5081157;28;20059;-79
2023/12/08 04:27:44;;;;;;;25.92;15.98;;;1.00;99.90;;;;;;5093470;28;20033;-79
2023/12/08 04:30:10;;;;;;;27.80;16.10;;;0.90;99.90;;;;;;5097965;28;20051;-81
2023/12/08 04:32:35;;;;;;;28.10;16.05;;;0.90;99.90;;;;;;5095639;28;20051;-80
2023/12/08 04:35:01;;;;;;;26.23;16.15;;;0.90;99.90;;;;;;5107723;28;20040;-79
2023/12/08 04:37:27;;;;;;;28.60;15.25;;;0.90;99.90;;;;;;5104920;28;20040;-81
2023/12/08 04:39:53;;;;;;;28.55;17.63;;;-0.40;99.90;;;;;;5093138;28;20052;-80
2023/12/08 04:42:19;;;;;;;30.55;16.60;;;1.00;99.90;;;;;;5096766;28;20036;-80
2023/12/08 04:44:44;;;;;;;32.00;18.40;;;0.80;99.90;;;;;;5103910;28;20036;-82
2023/12/08 04:47:11;;;;;;;31.73;16.05;;;0.80;99.90;;;;;;5098049;28;20039;-80
2023/12/08 04:49:39;;;;;;;28.23;15.68;;;0.70;99.90;;;;;;5097592;28;20029;-80
2023/12/08 04:52:05;;;;;;;28.63;16.50;;;0.70;99.90;;;;;;5095093;28;20047;-80
2023/12/08 04:54:34;;;;;;;32.47;17.33;;;0.60;99.90;;;;;;5079565;28;20127;-80
2023/12/08 04:56:59;;;;;;;33.63;16.40;;;0.60;99.90;;;;;;5095762;28;20051;-81
2023/12/08 04:59:25;;;;;;;35.60;18.10;;;0.60;99.90;;;;;;5090455;28;20036;-81
2023/12/08 05:01:52;;;;;;;35.33;17.88;;;0.60;99.90;;;;;;5099305;28;20056;-83
2023/12/08 05:04:19;;;;;;;34.95;18.15;;;0.60;99.90;;;;;;5113566;28;20052;-83
2023/12/08 05:06:46;;;;;;;36.97;18.85;;;0.60;99.90;;;;;;5096392;28;20032;-83
2023/12/08 05:09:12;;;;;;;36.97;18.75;;;0.50;99.90;;;;;;5096133;28;20063;-83
2023/12/08 05:11:43;;;;;;;33.30;17.48;;;0.50;99.90;;;;;;5097388;28;20119;-82
2023/12/08 05:14:09;;;;;;;;;;;0.50;99.90;;;;;;5114422;28;20115;-83
2023/12/08 05:16:35;;;;;;;33.33;17.65;;;0.50;99.90;;;;;;5103394;28;19928;-83
2023/12/08 05:19:05;;;;;;;42.30;19.98;;;0.50;99.90;;;;;;5093027;28;20051;-82
2023/12/08 05:21:31;;;;;;;41.65;20.30;;;0.40;99.90;;;;;;5091942;28;20067;-83
2023/12/08 05:23:57;;;;;;;46.45;21.20;;;0.50;99.90;;;;;;5092548;28;20103;-82
2023/12/08 05:26:23;;;;;;;38.92;18.60;;;0.50;99.90;;;;;;5098897;28;20043;-80
2023/12/08 05:28:49;;;;;;;47.35;21.73;;;0.50;99.90;;;;;;5102597;28;20068;-81
2023/12/08 05:31:15;;;;;;;45.78;22.33;;;0.50;99.90;;;;;;5102361;28;20047;-80
2023/12/08 05:33:44;;;;;;;47.35;21.27;;;0.20;99.90;;;;;;5109204;28;20044;-80
2023/12/08 05:36:12;;;;;;;44.00;19.90;;;0.40;99.90;;;;;;5075061;28;20028;-80
2023/12/08 05:38:38;;;;;;;43.10;21.05;;;0.70;99.90;;;;;;5091725;28;20096;-78
2023/12/08 05:41:04;;;;;;;47.95;22.23;;;0.40;99.90;;;;;;5101237;28;20040;-79
2023/12/08 05:43:30;;;;;;;47.38;21.70;;;0.40;99.90;;;;;;5076519;28;20104;-79
2023/12/08 05:45:56;;;;;;;47.58;21.77;;;0.40;99.90;;;;;;5099445;28;20032;-79
2023/12/08 05:48:21;;;;;;;52.03;21.58;;;0.40;99.90;;;;;;5089675;28;20106;-79
2023/12/08 05:50:47;;;;;;;53.83;23.65;;;0.40;99.90;;;;;;5092276;28;20041;-78
2023/12/08 05:53:14;;;;;;;50.30;22.95;;;0.40;99.90;;;;;;5107137;28;20047;-78
2023/12/08 05:55:40;;;;;;;45.63;22.58;;;0.40;99.90;;;;;;5095843;28;20043;-77
2023/12/08 05:58:06;;;;;;;52.35;23.38;;;0.40;99.90;;;;;;5096856;28;20040;-79
2023/12/08 06:00:33;;;;;;;54.10;24.02;;;0.40;99.90;;;;;;5091796;28;20049;-78
2023/12/08 06:02:59;;;;;;;50.33;22.88;;;0.40;99.90;;;;;;5098281;28;20056;-79
2023/12/08 06:05:25;;;;;;;52.55;24.27;;;0.40;99.90;;;;;;5094111;28;20044;-77
2023/12/08 06:07:50;;;;;;;45.72;21.48;;;0.40;99.90;;;;;;5101370;28;20080;-77
2023/12/08 06:10:16;;;;;;;53.10;22.98;;;0.40;99.90;;;;;;5082766;28;20044;-78
2023/12/08 06:12:42;;;;;;;53.15;22.70;;;0.40;99.90;;;;;;5102819;28;20047;-79
2023/12/08 06:15:10;;;;;;;53.83;23.30;;;0.30;99.90;;;;;;5102620;28;20036;-77
2023/12/08 06:17:36;;;;;;;54.78;23.83;;;0.40;99.90;;;;;;5105876;28;20063;-78
2023/12/08 06:20:09;;;;;;;53.08;22.50;;;1.70;99.90;;;;;;5104180;28;20040;-77
2023/12/08 06:22:38;;;;;;;52.88;22.48;;;0.40;99.90;;;;;;5086167;28;20040;-77
2023/12/08 06:25:05;;;;;;;53.00;23.00;;;0.40;99.90;;;;;;5099060;28;20460;-76
2023/12/08 06:27:31;;;;;;;52.20;22.58;;;0.30;99.90;;;;;;5079502;28;20431;-77
2023/12/08 06:29:56;;;;;;;57.15;23.02;;;0.40;99.90;;;;;;5081744;28;20048;-77
2023/12/08 06:32:25;;;;;;;56.00;24.08;;;0.40;99.90;;;;;;5104679;28;20108;-76
2023/12/08 06:34:51;;;;;;;;;;;0.40;99.90;;;;;;5108175;28;20040;-77
2023/12/08 06:37:16;;;;;;;53.97;22.67;;;0.40;99.90;;;;;;5081875;28;19942;-77
2023/12/08 06:39:42;;;;;;;51.42;21.65;;;0.80;99.90;;;;;;5098434;28;20044;-77
2023/12/08 06:42:08;;;;;;;56.25;24.17;;;0.40;99.90;;;;;;5099559;28;20040;-75
2023/12/08 06:44:34;;;;;;;55.33;23.42;;;0.40;99.90;;;;;;5095557;28;20066;-76
2023/12/08 06:47:00;;;;;;;52.33;22.95;;;0.40;99.90;;;;;;5102147;28;20036;-77
2023/12/08 06:49:25;;;;;;;51.53;22.77;;;0.40;99.90;;;;;;5084222;28;20469;-77
2023/12/08 06:51:51;;;;;;;56.63;24.17;;;0.30;99.90;;;;;;5093832;28;20048;-77
2023/12/08 06:54:18;;;;;;;54.90;23.23;;;0.20;99.90;;;;;;5087234;28;20055;-78
2023/12/08 06:56:43;;;;;;;52.17;22.27;;;0.30;99.90;;;;;;5089725;28;20036;-77
2023/12/08 06:59:10;;;;;;;58.38;24.20;;;0.30;99.90;;;;;;5099227;28;20090;-78
2023/12/08 07:01:36;;;;;;;56.08;23.52;;;0.30;99.90;;;;;;5101701;28;20049;-78
2023/12/08 07:04:03;;;;;;;59.35;24.67;;;1.60;99.90;;;;;;5098979;28;20059;-76
2023/12/08 07:06:30;;;;;;;53.63;24.00;;;1.10;99.90;;;;;;5097033;28;20036;-78
2023/12/08 07:08:56;;;;;;;57.70;24.17;;;0.30;99.90;;;;;;5077230;28;20096;-77
2023/12/08 07:11:22;;;;;;;55.83;23.35;;;0.30;99.90;;;;;;5078671;28;20045;-77
2023/12/08 07:13:48;;;;;;;66.50;24.20;;;0.30;99.90;;;;;;5090640;28;20123;-76
2023/12/08 07:16:14;;;;;;;58.20;24.77;;;0.30;99.90;;;;;;5101780;28;20044;-77
2023/12/08 07:18:40;;;;;;;62.78;27.02;;;0.70;99.90;;;;;;5088800;28;20036;-78
2023/12/08 07:21:06;;;;;;;51.40;23.80;;;0.30;99.90;;;;;;5077252;28;20398;-77
2023/12/08 07:23:33;;;;;;;60.40;24.77;;;0.30;99.90;;;;;;5087379;28;20041;-78
2023/12/08 07:25:59;;;;;;;54.20;23.10;;;0.30;99.90;;;;;;5075677;28;20040;-77
2023/12/08 07:28:25;;;;;;;60.28;26.55;;;0.30;99.90;;;;;;5083386;28;20036;-76
2023/12/08 07:30:51;;;;;;;61.35;24.50;;;0.30;99.90;;;;;;5100183;28;20043;-77
2023/12/08 07:33:17;;;;;;;58.28;25.73;;;0.30;99.90;;;;;;5110467;28;20051;-76
2023/12/08 07:35:42;;;;;;;66.35;27.15;;;0.30;99.90;;;;;;5102592;28;20050;-77
2023/12/08 07:38:08;;;;;;;59.78;24.90;;;0.30;99.90;;;;;;5105752;28;20047;-76
2023/12/08 07:40:34;;;;;;;59.92;24.85;;;0.30;99.90;;;;;;5092330;28;20088;-77
2023/12/08 07:43:00;;;;;;;66.30;27.85;;;0.30;99.90;;;;;;5118403;28;20051;-76
2023/12/08 07:45:25;;;;;;;57.25;24.23;;;1.00;99.90;;;;;;5083896;28;20040;-76
2023/12/08 07:47:51;;;;;;;56.97;23.90;;;0.30;99.90;;;;;;5099788;28;20071;-76
2023/12/08 07:50:17;;;;;;;57.25;24.50;;;0.30;99.90;;;;;;5085713;28;20060;-77
2023/12/08 07:52:43;;;;;;;71.50;30.30;;;0.40;99.90;;;;;;5087759;28;20128;-77
2023/12/08 07:55:09;;;;;;;62.65;26.67;;;0.40;99.90;;;;;;5091990;28;20093;-77
2023/12/08 07:57:36;;;;;;;61.78;26.00;;;0.40;99.90;;;;;;5095383;28;20064;-76
2023/12/08 08:00:06;;;;;;;68.53;28.38;;;0.40;99.90;;;;;;5099653;28;20044;-77
2023/12/08 08:02:32;;;;;;;63.40;25.02;;;0.40;99.90;;;;;;5101354;28;20059;-77
2023/12/08 08:04:58;;;;;;;57.90;24.88;;;0.40;99.90;;;;;;5080490;28;20042;-77
2023/12/08 08:07:24;;;;;;;63.42;27.38;;;0.40;99.90;;;;;;5074653;28;20113;-78
2023/12/08 08:10:02;;;;;;;66.68;27.33;;;0.40;99.90;;;;;;5084579;28;20043;-77
2023/12/08 08:12:28;;;;;;;59.08;24.40;;;0.40;99.90;;;;;;5118380;28;20487;-78
2023/12/08 08:14:54;;;;;;;61.70;25.60;;;0.40;99.90;;;;;;5091930;28;20037;-78
2023/12/08 08:17:22;;;;;;;65.82;25.98;;;0.40;99.90;;;;;;5093440;28;20047;-77
2023/12/08 08:19:48;;;;;;;60.33;24.58;;;0.40;99.90;;;;;;5090415;28;20051;-78
2023/12/08 08:22:14;;;;;;;59.05;25.40;;;0.50;99.90;;;;;;5085107;28;20040;-79
2023/12/08 08:24:40;;;;;;;59.17;26.95;;;0.50;99.90;;;;;;5081653;28;20044;-78
2023/12/08 08:27:06;;;;;;;59.17;24.73;;;0.50;99.90;;;;;;5087553;28;20401;-78
2023/12/08 08:29:32;;;;;;;62.92;27.38;;;1.10;99.90;;;;;;5071820;28;20052;-79
2023/12/08 08:31:57;;;;;;;62.20;27.88;;;0.50;99.90;;;;;;5073134;28;20062;-77
2023/12/08 08:34:23;;;;;;;58.08;26.90;;;0.50;99.90;;;;;;5101252;28;20067;-77
2023/12/08 08:36:49;;;;;;;62.95;27.40;;;0.50;99.90;;;;;;5077976;28;20581;-77
2023/12/08 08:39:14;;;;;;;55.90;23.58;;;0.50;99.90;;;;;;5100603;28;20436;-77
2023/12/08 08:41:45;;;;;;;68.22;27.25;;;0.50;99.90;;;;;;5082106;28;20032;-78
2023/12/08 08:44:13;;;;;;;66.45;28.33;;;0.50;99.90;;;;;;5101104;28;20696;-78
2023/12/08 08:46:44;;;;;;;72.05;27.02;;;0.50;99.90;;;;;;5089198;28;20044;-78
2023/12/08 08:49:16;;;;;;;60.13;25.55;;;0.50;99.90;;;;;;5100176;28;20040;-78
2023/12/08 08:51:43;;;;;;;63.58;24.33;;;0.60;99.90;;;;;;5084815;28;20100;-78
2023/12/08 08:54:13;;;;;;;66.35;24.60;;;0.50;99.90;;;;;;5086215;28;20517;-78
2023/12/08 08:56:39;;;;;;;59.38;26.13;;;0.60;99.90;;;;;;5096150;28;20032;-77
2023/12/08 08:59:05;;;;;;;59.22;24.73;;;0.60;99.90;;;;;;5078054;28;20043;-78
2023/12/08 09:01:31;;;;;;;66.95;23.88;;;0.60;99.90;;;;;;5078912;28;20052;-78
2023/12/08 09:03:56;;;;;;;61.17;25.90;;;0.60;99.90;;;;;;5100237;28;20362;-78
2023/12/08 09:06:22;;;;;;;61.67;25.45;;;1.30;99.90;;;;;;5079534;28;20055;-78
2023/12/08 09:08:48;;;;;;;62.90;25.05;;;0.60;99.90;;;;;;5082734;28;20139;-79
2023/12/08 09:11:14;;;;;;;59.80;27.55;;;1.80;99.90;;;;;;5094032;28;20449;-78
2023/12/08 09:13:40;;;;;;;60.97;26.60;;;0.60;99.90;;;;;;5086437;28;20479;-79
2023/12/08 09:16:05;;;;;;;69.32;28.45;;;1.80;99.90;;;;;;5082217;28;20037;-78
2023/12/08 09:18:32;;;;;;;68.50;27.95;;;0.60;99.90;;;;;;5099834;28;20095;-80
2023/12/08 09:21:00;;;;;;;56.13;23.83;;;0.80;99.90;;;;;;5085280;28;20083;-79
2023/12/08 09:23:25;;;;;;;62.20;25.77;;;0.50;99.90;;;;;;5080875;28;20044;-79
2023/12/08 09:25:53;;;;;;;63.22;24.17;;;2.20;99.90;;;;;;5081771;28;20048;-80
2023/12/08 09:28:20;;;;;;;59.33;25.27;;;0.20;99.90;;;;;;5101540;28;20103;-79
2023/12/08 09:30:46;;;;;;;58.47;25.30;;;0.70;99.90;;;;;;5107277;28;20289;-79
2023/12/08 09:33:13;;;;;;;51.13;23.45;;;1.80;99.90;;;;;;5089508;28;20044;-78
2023/12/08 09:35:38;;;;;;;53.47;22.45;;;0.90;99.90;;;;;;5088671;28;20116;-79
2023/12/08 09:38:04;;;;;;;56.15;23.48;;;2.40;99.90;;;;;;5081226;28;20076;-79
2023/12/08 09:40:33;;;;;;;61.95;25.70;;;2.10;99.90;;;;;;5085668;28;20075;-80
2023/12/08 09:43:06;;;;;;;59.50;25.50;;;0.80;99.90;;;;;;5066930;28;20051;-80
2023/12/08 09:45:32;;;;;;;56.10;24.48;;;0.30;99.90;;;;;;5062583;28;20106;-79
2023/12/08 09:48:00;;;;;;;55.55;25.50;;;0.90;99.90;;;;;;5080417;28;20123;-78
2023/12/08 09:50:26;;;;;;;61.13;25.40;;;0.90;99.90;;;;;;5095988;28;20060;-80
2023/12/08 09:52:56;;;;;;;54.10;23.00;;;1.00;99.90;;;;;;5067418;28;20513;-79
2023/12/08 09:55:22;;;;;;;53.97;24.08;;;2.00;99.90;;;;;;5099944;28;20082;-80
2023/12/08 09:57:48;;;;;;;59.58;25.85;;;0.90;99.90;;;;;;5062466;28;20053;-79
2023/12/08 10:00:15;;;;;;;63.92;26.38;;;0.90;99.90;;;;;;5093730;28;20040;-79
2023/12/08 10:02:41;;;;;;;51.97;23.48;;;0.90;99.90;;;;;;5095062;28;20067;-80
2023/12/08 10:05:10;;;;;;;51.35;23.67;;;0.90;99.90;;;;;;5091081;28;20077;-79
2023/12/08 10:07:43;;;;;;;52.50;23.77;;;0.90;99.90;;;;;;5093371;28;20568;-79
2023/12/08 10:10:10;;;;;;;48.30;21.92;;;0.90;99.90;;;;;;5067021;28;20043;-78
2023/12/08 10:12:37;;;;;;;51.45;23.40;;;0.90;99.90;;;;;;5092545;28;20076;-79
2023/12/08 10:15:08;;;;;;;50.63;23.92;;;0.90;99.90;;;;;;5075957;28;20445;-79
2023/12/08 10:17:34;;;;;;;56.22;24.50;;;0.90;99.90;;;;;;5088729;28;20489;-81
2023/12/08 10:20:10;;;;;;;66.10;28.20;;;0.90;99.90;;;;;;5092607;28;20391;-81
2023/12/08 10:22:53;;;;;;;57.05;25.40;;;0.90;99.90;;;;;;5086883;28;20028;-79
2023/12/08 10:25:20;;;;;;;55.85;24.50;;;0.90;99.90;;;;;;5104076;28;20052;-78
2023/12/08 10:27:51;;;;;;;60.33;25.88;;;1.50;99.90;;;;;;5103947;28;20044;-80
2023/12/08 10:30:21;;;;;;;54.03;23.92;;;0.90;99.90;;;;;;5096925;28;20058;-79
2023/12/08 10:32:50;;;;;;;60.67;26.65;;;1.00;99.90;;;;;;5093845;28;20047;-82
2023/12/08 10:35:19;;;;;;;59.55;26.38;;;1.00;99.90;;;;;;5083216;28;20059;-79
2023/12/08 10:37:47;;;;;;;61.97;25.65;;;1.00;99.90;;;;;;5086181;28;20036;-80
2023/12/08 10:40:18;;;;;;;58.40;26.13;;;1.00;99.90;;;;;;5089723;28;20105;-80
2023/12/08 10:42:48;;;;;;;60.22;24.75;;;0.60;99.90;;;;;;5093051;28;20177;-82
2023/12/08 10:45:14;;;;;;;58.22;26.48;;;1.00;99.90;;;;;;5085181;28;20087;-81
2023/12/08 10:47:44;;;;;;;66.30;28.55;;;0.60;99.90;;;;;;5088461;28;20040;-81
2023/12/08 10:50:13;;;;;;;57.97;27.02;;;3.00;99.90;;;;;;5069092;28;20048;-81
2023/12/08 10:52:40;;;;;;;57.83;23.75;;;2.30;99.90;;;;;;5094679;28;20044;-80
2023/12/08 10:55:07;;;;;;;53.38;24.05;;;2.40;99.90;;;;;;5093390;28;20041;-81
2023/12/08 10:57:45;;;;;;;67.75;26.50;;;1.00;99.90;;;;;;5090305;28;20517;-80
2023/12/08 11:00:19;;;;;;;63.45;25.33;;;1.40;99.90;;;;;;5082163;28;20117;-81
2023/12/08 11:02:53;;;;;;;52.70;24.25;;;1.00;99.90;;;;;;5085730;28;20140;-81
2023/12/08 11:05:25;;;;;;;73.53;31.02;;;0.80;99.90;;;;;;5078542;28;20044;-80
2023/12/08 11:07:53;;;;;;;66.32;28.60;;;1.40;99.90;;;;;;5077780;28;20047;-80
2023/12/08 11:10:21;;;;;;;65.57;26.52;;;1.00;99.90;;;;;;5098216;28;20116;-79
2023/12/08 11:13:00;;;;;;;61.05;26.20;;;0.90;99.90;;;;;;5086305;28;20040;-81
2023/12/08 11:15:32;;;;;;;56.05;25.98;;;1.00;99.90;;;;;;5081789;28;20482;-79
2023/12/08 11:18:09;;;;;;;61.80;27.48;;;1.10;99.90;;;;;;5082060;28;20049;-81
2023/12/08 11:20:40;;;;;;;66.65;29.10;;;0.00;99.90;;;;;;5099622;28;20133;-80
2023/12/08 11:23:06;;;;;;;61.20;27.20;;;1.20;99.90;;;;;;5105923;28;20071;-81
2023/12/08 11:25:41;;;;;;;66.03;27.67;;;1.20;99.90;;;;;;5087400;28;20055;-81
2023/12/08 11:28:24;;;;;;;67.90;29.23;;;1.20;99.90;;;;;;5081949;28;20075;-80
2023/12/08 11:30:53;;;;;;;64.38;28.85;;;1.30;99.90;;;;;;5098150;28;20040;-82
2023/12/08 11:33:32;;;;;;;61.33;25.42;;;2.80;99.90;;;;;;5092576;28;20071;-80
2023/12/08 11:36:08;;;;;;;60.45;26.42;;;1.20;99.90;;;;;;5087006;28;20032;-81
2023/12/08 11:38:34;;;;;;;73.63;30.85;;;1.10;99.90;;;;;;5100284;28;20048;-80
2023/12/08 11:41:00;;;;;;;80.22;29.20;;;1.10;99.90;;;;;;5095112;28;20032;-79
2023/12/08 11:43:27;;;;;;;71.07;28.75;;;1.20;99.90;;;;;;5109387;28;20044;-80
2023/12/08 11:45:55;;;;;;;76.00;31.42;;;2.10;99.90;;;;;;5116639;28;20052;-79
2023/12/08 11:48:21;;;;;;;;;;;2.60;99.90;;;;;;5088524;28;20075;-79
2023/12/08 11:50:47;;;;;;;75.32;29.58;;;1.20;99.90;;;;;;5094310;28;19966;-80
2023/12/08 11:53:17;;;;;;;79.57;30.13;;;1.20;99.90;;;;;;5126606;28;20046;-79
2023/12/08 11:55:43;;;;;;;72.93;28.65;;;1.70;99.90;;;;;;5108084;28;20040;-79
2023/12/08 11:58:17;;;;;;;83.53;30.40;;;1.20;99.90;;;;;;5091692;28;20145;-79
2023/12/08 12:00:47;;;;;;;79.25;29.80;;;1.50;99.90;;;;;;5078460;28;20048;-79
2023/12/08 12:03:13;;;;;;;81.72;28.05;;;1.20;99.90;;;;;;5090624;28;20076;-81
2023/12/08 12:05:43;;;;;;;81.53;30.33;;;1.80;99.90;;;;;;5089346;28;20044;-80
2023/12/08 12:08:16;;;;;;;79.95;29.52;;;1.40;99.90;;;;;;5098501;28;20044;-80
2023/12/08 12:10:45;;;;;;;87.15;31.33;;;1.20;99.90;;;;;;5071531;28;20116;-80
2023/12/08 12:13:17;;;;;;;84.78;30.90;;;1.20;99.90;;;;;;5090078;28;20117;-80
2023/12/08 12:15:43;;;;;;;99.95;30.15;;;2.70;99.90;;;;;;5077936;28;20064;-80
2023/12/08 12:18:16;;;;;;;100.22;34.38;;;1.30;99.90;;;;;;5060216;28;20048;-79
2023/12/08 12:20:43;;;;;;;99.03;32.78;;;0.50;99.90;;;;;;5069657;28;20056;-80
2023/12/08 12:23:13;;;;;;;98.53;33.85;;;1.20;99.90;;;;;;5084440;28;20101;-81
2023/12/08 12:25:41;;;;;;;89.25;30.80;;;2.00;99.90;;;;;;5092859;28;20059;-80
2023/12/08 12:28:07;;;;;;;101.55;34.95;;;0.50;99.90;;;;;;5085379;28;20464;-80
2023/12/08 12:30:33;;;;;;;92.72;28.35;;;1.20;99.90;;;;;;5089706;28;20040;-79
2023/12/08 12:32:59;;;;;;;95.97;33.38;;;1.30;99.90;;;;;;5089949;28;20399;-79
2023/12/08 12:35:24;;;;;;;95.80;34.70;;;0.90;99.90;;;;;;5079313;28;20040;-79
2023/12/08 12:37:52;;;;;;;88.15;31.02;;;1.30;99.90;;;;;;5082280;28;20459;-80
2023/12/08 12:40:19;;;;;;;99.00;32.70;;;1.30;99.90;;;;;;5094614;28;20099;-80